Time;durP1;ratioP1;P1;durP2;ratioP2;P2;SDS_P1;SDS_P2;PMS_P1;PMS_P2;Temp;Humidity;BMP_temperature;BMP_pressure;BME280_temperature;BME280_humidity;BME280_pressure;Samples;Min_cycle;Max_cycle;Signal;HPM_P1;HPM_P2
2022/06/08 00:00:10;;;;;;;14.27;8.63;;;11.30;99.90;;;;;;6191955;28;20411;-71
2022/06/08 00:03:14;;;;;;;13.55;9.13;;;11.20;99.90;;;;;;6175832;28;20047;-71
2022/06/08 00:06:17;;;;;;;14.40;8.35;;;11.20;99.90;;;;;;6190436;28;20054;-71
2022/06/08 00:09:20;;;;;;;12.83;8.90;;;11.20;99.90;;;;;;6188433;28;20046;-71
2022/06/08 00:12:22;;;;;;;14.32;9.40;;;11.20;99.90;;;;;;6184264;28;20826;-72
2022/06/08 00:15:26;;;;;;;12.77;8.90;;;11.10;99.90;;;;;;6193216;28;20050;-71
2022/06/08 00:18:27;;;;;;;12.85;8.98;;;11.10;99.90;;;;;;6166551;28;20106;-71
2022/06/08 00:21:29;;;;;;;10.10;9.02;;;11.10;99.90;;;;;;6176468;28;20054;-71
2022/06/08 00:24:32;;;;;;;13.73;9.05;;;11.00;99.90;;;;;;6205114;28;20050;-70
2022/06/08 00:27:34;;;;;;;11.37;8.83;;;11.00;99.90;;;;;;6182299;28;20047;-71
2022/06/08 00:30:38;;;;;;;11.18;9.00;;;11.00;99.90;;;;;;6182631;28;20486;-71
2022/06/08 00:33:40;;;;;;;13.30;8.88;;;11.00;99.90;;;;;;6200171;28;20054;-71
2022/06/08 00:36:41;;;;;;;13.32;8.75;;;11.00;99.90;;;;;;6199037;28;20053;-71
2022/06/08 00:39:43;;;;;;;12.18;8.88;;;10.90;99.90;;;;;;6206027;28;20064;-71
2022/06/08 00:42:46;;;;;;;13.13;8.70;;;10.90;99.90;;;;;;6219323;28;20046;-71
2022/06/08 00:45:49;;;;;;;13.05;7.97;;;10.90;99.90;;;;;;6199991;28;20053;-71
2022/06/08 00:48:53;;;;;;;;;;;10.90;99.90;;;;;;6200670;28;20058;-71
2022/06/08 00:51:55;;;;;;;;;;;10.90;99.90;;;;;;6200492;28;20382;-71
2022/06/08 00:55:00;;;;;;;12.48;7.82;;;10.90;99.90;;;;;;6183577;28;20374;-71
2022/06/08 00:58:05;;;;;;;11.27;8.55;;;10.90;99.90;;;;;;6200452;28;20061;-71
2022/06/08 01:01:09;;;;;;;11.30;8.55;;;10.90;99.90;;;;;;6188179;28;20062;-71
2022/06/08 01:04:12;;;;;;;;;;;11.00;99.90;;;;;;6176523;28;20050;-71
2022/06/08 01:07:21;;;;;;;11.38;8.20;;;11.00;99.90;;;;;;6198408;28;19929;-71
2022/06/08 01:10:26;;;;;;;12.65;8.35;;;10.90;99.90;;;;;;6193119;28;20495;-71
2022/06/08 01:13:30;;;;;;;11.23;8.35;;;10.80;99.90;;;;;;6198523;28;20053;-71
2022/06/08 01:16:33;;;;;;;10.32;7.35;;;10.80;99.90;;;;;;6185212;28;20061;-71
2022/06/08 01:19:37;;;;;;;10.05;7.75;;;10.80;99.90;;;;;;6173605;28;20057;-71
2022/06/08 01:22:41;;;;;;;11.50;7.80;;;10.70;99.90;;;;;;6180980;28;20073;-71
2022/06/08 01:25:57;;;;;;;12.25;8.45;;;10.70;99.90;;;;;;6175416;28;20052;-71
2022/06/08 01:29:03;;;;;;;12.95;8.48;;;10.60;99.90;;;;;;6178482;28;20065;-71
2022/06/08 01:32:13;;;;;;;12.98;9.40;;;10.60;99.90;;;;;;6215875;28;20422;-71
2022/06/08 01:35:24;;;;;;;14.07;8.77;;;10.40;99.90;;;;;;6179506;28;20061;-71
2022/06/08 01:38:38;;;;;;;11.38;9.05;;;10.40;99.90;;;;;;6175401;28;20412;-71
2022/06/08 01:41:57;;;;;;;14.40;8.93;;;10.40;99.90;;;;;;6183266;28;20050;-71
2022/06/08 01:45:30;;;;;;;12.02;8.05;;;10.40;99.90;;;;;;6196847;28;20056;-71
2022/06/08 01:49:02;;;;;;;12.25;9.15;;;10.40;99.90;;;;;;6192589;28;20062;-71
2022/06/08 01:52:21;;;;;;;13.45;9.85;;;10.40;99.90;;;;;;6181882;28;20049;-71
2022/06/08 01:55:27;;;;;;;12.25;9.13;;;10.40;99.90;;;;;;6197131;28;20413;-71
2022/06/08 01:58:40;;;;;;;17.88;10.15;;;10.30;99.90;;;;;;6196370;28;20054;-71
2022/06/08 02:01:47;;;;;;;17.63;9.55;;;10.30;99.90;;;;;;6189866;28;20414;-71
2022/06/08 02:04:56;;;;;;;16.45;9.65;;;10.30;99.90;;;;;;6178599;28;20077;-71
2022/06/08 02:08:03;;;;;;;11.30;9.10;;;10.30;99.90;;;;;;6173608;28;20046;-71
2022/06/08 02:11:14;;;;;;;14.07;9.45;;;10.30;99.90;;;;;;6191615;28;20054;-71
2022/06/08 02:14:21;;;;;;;14.80;10.70;;;10.20;99.90;;;;;;6180881;28;20058;-71
2022/06/08 02:17:30;;;;;;;14.50;9.85;;;10.20;99.90;;;;;;6185599;28;20045;-71
2022/06/08 02:20:46;;;;;;;12.82;7.75;;;10.20;99.90;;;;;;6194030;28;20054;-71
2022/06/08 02:23:52;;;;;;;11.88;9.52;;;10.20;99.90;;;;;;6189049;28;20411;-71
2022/06/08 02:27:00;;;;;;;14.43;10.30;;;10.10;99.90;;;;;;6184652;28;20061;-71
2022/06/08 02:30:08;;;;;;;10.10;7.22;;;10.20;99.90;;;;;;6159052;28;20061;-71
2022/06/08 02:36:44;;;;;;;13.23;8.88;;;10.30;99.90;;;;;;6128764;28;20065;-71
2022/06/08 02:39:49;;;;;;;14.88;8.20;;;10.40;99.90;;;;;;6211028;28;20042;-71
2022/06/08 02:42:57;;;;;;;14.48;9.88;;;10.40;99.90;;;;;;6218781;28;20188;-71
2022/06/08 02:46:06;;;;;;;12.95;9.18;;;10.40;99.90;;;;;;6197241;28;20038;-71
2022/06/08 02:49:09;;;;;;;13.00;9.35;;;10.40;99.90;;;;;;6196575;28;20491;-71
2022/06/08 02:52:18;;;;;;;14.02;8.80;;;10.20;99.90;;;;;;6179307;28;20144;-71
2022/06/08 02:55:23;;;;;;;12.90;8.95;;;10.20;99.90;;;;;;6197819;28;20151;-71
2022/06/08 02:58:33;;;;;;;14.32;9.27;;;10.10;99.90;;;;;;6179605;28;20050;-71
2022/06/08 03:01:38;;;;;;;14.18;10.75;;;10.10;99.90;;;;;;6194404;28;20058;-70
2022/06/08 03:04:46;;;;;;;14.45;10.00;;;10.10;99.90;;;;;;6177939;28;20392;-70
2022/06/08 03:07:53;;;;;;;15.57;10.18;;;10.10;99.90;;;;;;6171791;28;20065;-71
2022/06/08 03:10:55;;;;;;;9.65;7.65;;;10.10;99.90;;;;;;6179112;28;20061;-70
2022/06/08 03:14:01;;;;;;;15.50;10.77;;;10.10;99.90;;;;;;6197167;28;20057;-70
2022/06/08 03:17:06;;;;;;;16.30;10.55;;;10.10;99.90;;;;;;6178698;28;20606;-70
2022/06/08 03:20:10;;;;;;;19.80;11.65;;;10.10;99.90;;;;;;6174620;28;20047;-70
2022/06/08 03:23:12;;;;;;;12.80;7.97;;;10.00;99.90;;;;;;6173926;28;20082;-70
2022/06/08 03:26:14;;;;;;;16.48;10.88;;;10.00;99.90;;;;;;6156586;28;20435;-70
2022/06/08 03:29:18;;;;;;;18.50;13.20;;;10.10;99.90;;;;;;6178528;28;20286;-70
2022/06/08 03:32:20;;;;;;;;;;;10.20;99.90;;;;;;6204961;28;20058;-70
2022/06/08 03:35:22;;;;;;;16.90;11.32;;;10.20;99.90;;;;;;6171486;28;20287;-70
2022/06/08 03:38:24;;;;;;;19.63;13.52;;;10.20;99.90;;;;;;6190825;28;20054;-70
2022/06/08 03:41:26;;;;;;;13.65;9.40;;;10.20;99.90;;;;;;6200273;28;20447;-70
2022/06/08 03:44:29;;;;;;;22.27;14.63;;;10.30;99.90;;;;;;6185311;28;20058;-70
2022/06/08 03:47:34;;;;;;;;;;;10.50;99.90;;;;;;6185197;28;20498;-70
2022/06/08 03:50:36;;;;;;;22.77;15.32;;;10.50;99.90;;;;;;6175182;28;19921;-70
2022/06/08 03:53:42;;;;;;;15.40;10.93;;;10.50;99.90;;;;;;6201764;28;20046;-70
2022/06/08 03:56:46;;;;;;;19.80;14.05;;;10.60;99.90;;;;;;6200799;28;20047;-70
2022/06/08 03:59:51;;;;;;;21.90;14.57;;;10.60;99.90;;;;;;6184926;28;20059;-70
2022/06/08 04:02:53;;;;;;;19.45;14.50;;;10.70;99.90;;;;;;6193628;28;20403;-70
2022/06/08 04:05:56;;;;;;;18.23;14.25;;;10.70;99.90;;;;;;6224769;28;20405;-71
2022/06/08 04:08:58;;;;;;;20.20;14.43;;;10.70;99.90;;;;;;6202522;28;20085;-70
2022/06/08 04:12:00;;;;;;;17.35;13.10;;;10.70;99.90;;;;;;6180391;28;20045;-70
2022/06/08 04:15:04;;;;;;;18.98;14.80;;;10.70;99.90;;;;;;6200528;28;20054;-70
2022/06/08 04:18:06;;;;;;;17.27;13.32;;;10.70;99.90;;;;;;6191427;28;20046;-70
2022/06/08 04:21:10;;;;;;;19.55;15.48;;;10.80;99.90;;;;;;6187308;28;20053;-70
2022/06/08 04:24:14;;;;;;;24.98;15.65;;;10.90;99.90;;;;;;6183894;28;20046;-70
2022/06/08 04:27:16;;;;;;;23.23;15.85;;;11.00;99.90;;;;;;6199318;28;20049;-70
2022/06/08 04:30:20;;;;;;;18.85;11.82;;;11.00;99.90;;;;;;6183322;28;20065;-70
2022/06/08 04:33:22;;;;;;;22.50;15.73;;;11.10;99.90;;;;;;6199907;28;20418;-70
2022/06/08 04:36:24;;;;;;;21.35;16.13;;;11.10;99.90;;;;;;6185541;28;20051;-70
2022/06/08 04:39:26;;;;;;;26.02;16.85;;;11.10;99.90;;;;;;6202040;28;20074;-71
2022/06/08 04:42:28;;;;;;;23.13;16.90;;;11.20;99.90;;;;;;6200022;28;20065;-71
2022/06/08 04:45:32;;;;;;;23.92;16.50;;;11.20;99.90;;;;;;6199003;28;20047;-71
2022/06/08 04:48:34;;;;;;;24.83;16.27;;;11.30;99.90;;;;;;6180124;28;20137;-70
2022/06/08 04:51:36;;;;;;;23.45;15.85;;;11.30;99.90;;;;;;6183481;28;20058;-71
2022/06/08 04:54:38;;;;;;;21.00;16.65;;;11.40;99.90;;;;;;6183299;28;20487;-70
2022/06/08 04:57:40;;;;;;;23.42;15.75;;;11.30;99.90;;;;;;6197772;28;20054;-70
2022/06/08 05:00:43;;;;;;;23.35;16.30;;;11.40;99.90;;;;;;6200222;28;20050;-70
2022/06/08 05:03:45;;;;;;;22.75;15.75;;;11.60;99.90;;;;;;6180559;28;20130;-70
2022/06/08 05:06:47;;;;;;;21.95;16.88;;;11.80;99.90;;;;;;6185211;28;20057;-71
2022/06/08 05:09:49;;;;;;;8.98;7.07;;;12.00;99.90;;;;;;6198327;28;20084;-70
2022/06/08 05:12:51;;;;;;;23.10;16.55;;;12.40;99.90;;;;;;6200177;28;20054;-71
2022/06/08 05:15:55;;;;;;;26.70;17.02;;;12.90;99.90;;;;;;6181104;28;20065;-70
2022/06/08 05:18:56;;;;;;;18.35;11.80;;;13.40;99.90;;;;;;6177166;28;20450;-70
2022/06/08 05:21:58;;;;;;;18.95;12.88;;;13.50;99.90;;;;;;6170854;28;20042;-70
2022/06/08 05:25:03;;;;;;;23.77;16.70;;;13.50;99.90;;;;;;6199937;28;20062;-71
2022/06/08 05:28:07;;;;;;;15.43;9.98;;;13.60;99.90;;;;;;6180266;28;20063;-71
2022/06/08 05:31:10;;;;;;;23.48;17.10;;;13.80;99.90;;;;;;6174449;28;20055;-71
2022/06/08 05:34:12;;;;;;;;;;;14.00;99.90;;;;;;6158893;28;20189;-71
2022/06/08 05:37:14;;;;;;;17.95;13.35;;;14.00;99.90;;;;;;6159266;28;19928;-71
2022/06/08 05:40:16;;;;;;;22.20;15.98;;;14.00;99.90;;;;;;6195618;28;20061;-70
2022/06/08 05:43:19;;;;;;;12.88;10.27;;;14.00;99.90;;;;;;6181900;28;20065;-71
2022/06/08 05:46:22;;;;;;;22.30;16.88;;;14.10;99.90;;;;;;6193053;28;20054;-71
2022/06/08 05:49:24;;;;;;;25.25;17.92;;;14.20;99.90;;;;;;6190533;28;20046;-70
2022/06/08 05:52:27;;;;;;;12.27;9.25;;;14.20;99.90;;;;;;6195467;28;20626;-75
2022/06/08 05:55:29;;;;;;;13.95;9.85;;;14.20;99.90;;;;;;6178709;28;20046;-85
2022/06/08 05:58:31;;;;;;;104.20;34.73;;;14.30;99.90;;;;;;6196614;28;20057;-76
2022/06/08 06:01:35;;;;;;;22.58;17.73;;;14.50;99.90;;;;;;6180484;28;20046;-76
2022/06/08 06:04:37;;;;;;;40.30;18.38;;;14.60;99.90;;;;;;6180189;28;20141;-75
2022/06/08 06:07:41;;;;;;;24.80;17.88;;;14.60;99.90;;;;;;6194821;28;20518;-71
2022/06/08 06:10:45;;;;;;;23.10;17.50;;;14.50;99.90;;;;;;6192771;28;20126;-70
2022/06/08 06:13:48;;;;;;;26.23;17.65;;;14.50;99.90;;;;;;6197911;28;20065;-70
2022/06/08 06:16:51;;;;;;;22.50;13.98;;;14.70;99.90;;;;;;6167793;28;20142;-70
2022/06/08 06:19:53;;;;;;;21.77;16.63;;;15.00;99.90;;;;;;6178756;28;20050;-70
2022/06/08 06:22:55;;;;;;;26.23;19.20;;;15.30;99.90;;;;;;6179394;28;20058;-71
2022/06/08 06:25:58;;;;;;;20.02;14.27;;;15.30;99.90;;;;;;6180912;28;20046;-71
2022/06/08 06:29:00;;;;;;;27.38;20.17;;;15.30;99.90;;;;;;6193257;28;20114;-70
2022/06/08 06:32:07;;;;;;;17.52;12.82;;;15.50;99.90;;;;;;6195832;28;20057;-70
2022/06/08 06:35:16;;;;;;;17.70;11.10;;;15.60;99.90;;;;;;6196133;28;20054;-70
2022/06/08 06:38:18;;;;;;;12.70;8.43;;;15.70;99.90;;;;;;6191897;28;20503;-70
2022/06/08 06:41:21;;;;;;;15.88;9.38;;;15.80;99.90;;;;;;6197968;28;20042;-70
2022/06/08 06:44:23;;;;;;;10.07;7.78;;;16.00;99.90;;;;;;6196596;28;20050;-70
2022/06/08 06:47:27;;;;;;;26.13;20.05;;;16.20;99.90;;;;;;6177699;28;20050;-70
2022/06/08 06:50:29;;;;;;;10.95;8.43;;;16.20;99.90;;;;;;6161501;28;20050;-70
2022/06/08 06:53:31;;;;;;;10.05;6.40;;;16.20;99.90;;;;;;6183921;28;20383;-69
2022/06/08 06:56:33;;;;;;;17.95;13.63;;;16.30;99.90;;;;;;6197888;28;20489;-69
2022/06/08 06:59:35;;;;;;;23.88;18.42;;;16.50;99.90;;;;;;6193824;28;20054;-70
2022/06/08 07:02:39;;;;;;;12.80;8.82;;;16.70;99.90;;;;;;6177676;28;20122;-70
2022/06/08 07:05:42;;;;;;;9.50;5.55;;;16.80;99.90;;;;;;6180503;28;20415;-70
2022/06/08 07:08:44;;;;;;;21.98;16.70;;;17.30;99.90;;;;;;6197828;28;20380;-70
2022/06/08 07:11:45;;;;;;;19.80;15.68;;;17.80;99.90;;;;;;6195104;28;20046;-70
2022/06/08 07:14:47;;;;;;;12.32;9.00;;;18.20;99.90;;;;;;6166407;28;20055;-70
2022/06/08 07:17:51;;;;;;;8.75;4.85;;;18.50;99.90;;;;;;6197503;28;20053;-70
2022/06/08 07:20:53;;;;;;;11.85;8.63;;;18.80;99.90;;;;;;6179508;28;20058;-70
2022/06/08 07:23:56;;;;;;;14.40;9.57;;;19.10;99.90;;;;;;6197503;28;20137;-70
2022/06/08 07:26:58;;;;;;;12.68;9.88;;;19.30;99.90;;;;;;6197440;28;20073;-70
2022/06/08 07:30:00;;;;;;;13.18;8.65;;;19.10;99.90;;;;;;6196565;28;20072;-70
2022/06/08 07:33:04;;;;;;;14.63;12.77;;;19.20;99.90;;;;;;6180272;28;20058;-70
2022/06/08 07:36:06;;;;;;;;;;;19.40;99.90;;;;;;6180611;28;20053;-70
2022/06/08 07:39:09;;;;;;;9.18;7.00;;;19.60;99.90;;;;;;6187498;28;20306;-70
2022/06/08 07:42:11;;;;;;;13.32;9.55;;;19.70;99.90;;;;;;6194090;28;20116;-69
2022/06/08 07:45:13;;;;;;;12.13;9.18;;;19.70;99.90;;;;;;6197407;28;20533;-70
2022/06/08 07:51:36;;;;;;;10.55;8.60;;;19.80;99.90;;;;;;6197485;28;20047;-70
2022/06/08 07:54:40;;;;;;;13.07;8.20;;;20.00;99.90;;;;;;6196913;28;20494;-70
2022/06/08 07:57:41;;;;;;;13.65;9.48;;;20.00;99.90;;;;;;6180058;28;20561;-70
2022/06/08 08:00:47;;;;;;;12.32;9.65;;;20.10;99.90;;;;;;6195459;28;20058;-70
2022/06/08 08:03:50;;;;;;;6.25;5.10;;;20.10;99.90;;;;;;6219397;28;20042;-70
2022/06/08 08:06:52;;;;;;;10.88;8.88;;;20.10;99.90;;;;;;6221472;28;20655;-70
2022/06/08 08:09:54;;;;;;;11.40;8.00;;;19.90;99.90;;;;;;6198617;28;20057;-70
2022/06/08 08:12:56;;;;;;;8.05;6.68;;;19.80;99.90;;;;;;6195660;28;20132;-70
2022/06/08 08:15:58;;;;;;;10.00;7.38;;;19.70;99.90;;;;;;6179437;28;20198;-70
2022/06/08 08:19:01;;;;;;;10.45;8.32;;;19.70;99.90;;;;;;6179769;28;20046;-70
2022/06/08 08:22:03;;;;;;;9.38;7.68;;;19.80;99.90;;;;;;6195810;28;20058;-70
2022/06/08 08:25:06;;;;;;;13.00;9.88;;;19.80;99.90;;;;;;6196956;28;20042;-70
2022/06/08 08:28:09;;;;;;;9.43;5.28;;;19.90;99.90;;;;;;6183672;28;20080;-70
2022/06/08 08:31:11;;;;;;;10.47;7.43;;;19.90;99.90;;;;;;6183695;28;20655;-70
2022/06/08 08:34:14;;;;;;;10.82;8.98;;;20.00;99.90;;;;;;6175763;28;20034;-71
2022/06/08 08:37:17;;;;;;;12.10;9.65;;;20.10;99.90;;;;;;6196021;28;20760;-70
2022/06/08 08:40:35;;;;;;;6.55;5.40;;;20.20;99.90;;;;;;6201018;28;20057;-70
2022/06/08 08:43:38;;;;;;;5.38;4.35;;;20.30;99.90;;;;;;6200663;28;20053;-70
2022/06/08 08:46:48;;;;;;;5.97;4.82;;;20.50;99.90;;;;;;6200640;28;20042;-70
2022/06/08 08:49:55;;;;;;;5.85;4.78;;;20.70;99.90;;;;;;6199472;28;20053;-70
2022/06/08 08:53:03;;;;;;;7.43;6.03;;;20.80;99.90;;;;;;6206121;28;20457;-70
2022/06/08 08:56:13;;;;;;;7.22;5.78;;;20.90;99.90;;;;;;6207297;28;20145;-70
2022/06/08 08:59:18;;;;;;;7.57;5.88;;;20.80;99.90;;;;;;6201287;28;20053;-70
2022/06/08 09:05:42;;;;;;;6.03;4.68;;;20.70;99.90;;;;;;6194602;28;20050;-70
2022/06/08 09:08:47;;;;;;;7.10;4.38;;;20.60;99.90;;;;;;6182623;28;20463;-70
2022/06/08 09:11:49;;;;;;;5.35;3.88;;;20.50;99.90;;;;;;6205066;28;20129;-70
2022/06/08 09:14:57;;;;;;;4.55;2.80;;;20.40;99.90;;;;;;6175750;28;20062;-70
2022/06/08 09:17:59;;;;;;;2.95;2.65;;;20.40;99.90;;;;;;6158712;28;20051;-71
2022/06/08 09:21:26;;;;;;;3.75;2.22;;;20.40;99.90;;;;;;6193445;28;20062;-70
2022/06/08 09:24:35;;;;;;;2.95;2.20;;;20.50;99.90;;;;;;6200062;28;20054;-70
2022/06/08 09:27:50;;;;;;;2.70;2.40;;;20.60;99.90;;;;;;6189674;28;20056;-70
2022/06/08 09:30:53;;;;;;;4.57;3.13;;;20.60;99.90;;;;;;6182362;28;20506;-71
2022/06/08 09:34:06;;;;;;;3.83;2.15;;;20.70;99.90;;;;;;6181906;28;20042;-71
2022/06/08 09:37:14;;;;;;;2.72;2.40;;;20.80;99.90;;;;;;6181310;28;20534;-70
2022/06/08 09:43:50;;;;;;;2.60;1.77;;;20.90;99.90;;;;;;6198550;28;20054;-70
2022/06/08 09:54:15;;;;;;;2.45;1.80;;;20.90;99.90;;;;;;6176876;28;20059;-70
2022/06/08 09:57:37;;;;;;;4.32;1.95;;;21.00;99.90;;;;;;6176439;28;20129;-70
2022/06/08 10:00:45;;;;;;;3.17;2.20;;;20.90;99.90;;;;;;6174550;28;20050;-70
2022/06/08 10:04:03;;;;;;;2.85;1.80;;;20.80;99.90;;;;;;6198485;28;20494;-70
2022/06/08 10:07:14;;;;;;;2.33;2.00;;;20.80;99.90;;;;;;6198746;28;20046;-71
2022/06/08 10:10:25;;;;;;;3.47;1.95;;;20.70;99.90;;;;;;6174066;28;20053;-70
2022/06/08 10:13:35;;;;;;;3.30;1.90;;;20.70;99.90;;;;;;6180123;28;20046;-70
2022/06/08 10:16:43;;;;;;;4.00;2.03;;;20.60;99.90;;;;;;6167316;28;20042;-71
2022/06/08 10:19:56;;;;;;;6.60;3.10;;;20.50;99.90;;;;;;6169934;28;20046;-73
2022/06/08 10:23:06;;;;;;;5.07;3.28;;;20.40;99.90;;;;;;6191265;28;20042;-72
2022/06/08 10:26:16;;;;;;;4.68;3.35;;;20.40;99.90;;;;;;6180207;28;20483;-73
2022/06/08 10:29:22;;;;;;;4.60;2.85;;;20.30;99.90;;;;;;6192252;28;20414;-72
2022/06/08 10:32:29;;;;;;;3.17;1.92;;;20.30;99.90;;;;;;6191629;28;20097;-72
2022/06/08 10:35:36;;;;;;;3.35;2.80;;;20.50;99.90;;;;;;6176551;28;20047;-70
2022/06/08 10:38:42;;;;;;;2.95;2.50;;;20.60;99.90;;;;;;6194773;28;20046;-70
2022/06/08 10:45:29;;;;;;;4.15;2.45;;;21.20;99.90;;;;;;6197395;28;20387;-70
2022/06/08 10:48:52;;;;;;;4.32;2.90;;;21.40;99.90;;;;;;6193584;28;20054;-71
2022/06/08 10:52:17;;;;;;;4.05;2.33;;;21.30;99.90;;;;;;6169151;28;20446;-70
2022/06/08 10:55:43;;;;;;;3.80;2.58;;;21.20;99.90;;;;;;6189207;28;20144;-69
2022/06/08 10:58:58;;;;;;;4.18;2.33;;;21.10;99.90;;;;;;6177174;28;20054;-68
2022/06/08 11:02:21;;;;;;;3.22;2.28;;;21.10;99.90;;;;;;6193191;28;20058;-71
2022/06/08 11:05:32;;;;;;;3.08;2.60;;;21.00;99.90;;;;;;6171581;28;20054;-71
2022/06/08 11:08:52;;;;;;;3.95;2.53;;;21.00;99.90;;;;;;6167629;28;20062;-71
2022/06/08 11:12:04;;;;;;;2.53;2.22;;;21.00;99.90;;;;;;6170527;28;20081;-72
2022/06/08 11:15:22;;;;;;;6.63;3.08;;;21.10;99.90;;;;;;6172094;28;20060;-71
2022/06/08 11:18:30;;;;;;;5.80;2.40;;;21.30;99.90;;;;;;6183861;28;20054;-72
2022/06/08 11:21:44;;;;;;;5.07;2.20;;;21.60;99.90;;;;;;6177457;28;20141;-72
2022/06/08 11:24:51;;;;;;;4.57;2.10;;;21.70;99.90;;;;;;6178749;28;20046;-72
2022/06/08 11:28:32;;;;;;;5.20;2.50;;;21.90;99.90;;;;;;6178767;28;20080;-71
2022/06/08 11:31:54;;;;;;;4.82;1.70;;;21.90;99.90;;;;;;6197471;28;20054;-71
2022/06/08 11:35:12;;;;;;;3.92;2.65;;;21.70;99.90;;;;;;6174610;28;20176;-71
2022/06/08 11:38:19;;;;;;;3.97;2.30;;;21.60;99.90;;;;;;6167083;28;20046;-71
2022/06/08 11:41:33;;;;;;;4.07;2.15;;;21.60;99.90;;;;;;6167506;28;20055;-72
2022/06/08 11:44:37;;;;;;;3.00;1.95;;;21.60;99.90;;;;;;6197484;28;20054;-72
2022/06/08 11:47:48;;;;;;;;;;;21.60;99.90;;;;;;6178955;28;20050;-71
2022/06/08 11:50:52;;;;;;;2.60;2.10;;;21.70;99.90;;;;;;6175956;28;19929;-71
2022/06/08 11:53:55;;;;;;;5.05;1.80;;;21.80;99.90;;;;;;6180140;28;20192;-71
2022/06/08 11:57:13;;;;;;;2.50;1.30;;;21.70;99.90;;;;;;6185820;28;20051;-72
2022/06/08 12:00:24;;;;;;;3.08;1.52;;;21.80;99.90;;;;;;6175257;28;20136;-72
2022/06/08 12:03:35;;;;;;;3.75;1.80;;;21.80;99.90;;;;;;6184005;28;20054;-71
2022/06/08 12:06:39;;;;;;;2.47;1.55;;;21.80;99.90;;;;;;6200492;28;20129;-71
2022/06/08 12:09:42;;;;;;;2.80;1.75;;;21.90;99.90;;;;;;6196442;28;20054;-72
2022/06/08 12:12:46;;;;;;;4.45;2.00;;;21.80;99.90;;;;;;6194189;28;20054;-72
2022/06/08 12:15:51;;;;;;;2.35;1.70;;;21.90;99.90;;;;;;6197978;28;20050;-72
2022/06/08 12:18:57;;;;;;;3.50;2.05;;;21.90;99.90;;;;;;6183345;28;20426;-71
2022/06/08 12:22:15;;;;;;;4.35;2.10;;;22.00;99.90;;;;;;6184036;28;20057;-71
2022/06/08 12:25:21;;;;;;;4.63;1.98;;;22.10;99.90;;;;;;6180481;28;20064;-71
2022/06/08 12:28:24;;;;;;;2.35;1.80;;;22.10;99.90;;;;;;6179200;28;20042;-70
2022/06/08 12:31:31;;;;;;;4.45;1.42;;;22.20;99.90;;;;;;6199670;28;20129;-70
2022/06/08 12:34:39;;;;;;;3.70;1.95;;;22.30;99.90;;;;;;6175169;28;20070;-71
2022/06/08 12:37:44;;;;;;;3.83;1.70;;;22.30;99.90;;;;;;6161533;28;20055;-70
2022/06/08 12:41:02;;;;;;;1.95;1.50;;;22.40;99.90;;;;;;6165073;28;20211;-70
2022/06/08 12:44:14;;;;;;;5.20;1.52;;;22.40;99.90;;;;;;6170123;28;20073;-70
2022/06/08 12:47:19;;;;;;;3.03;1.85;;;22.40;99.90;;;;;;6161093;28;20407;-71
2022/06/08 12:50:25;;;;;;;3.03;1.60;;;22.40;99.90;;;;;;6168840;28;20099;-71
2022/06/08 12:53:28;;;;;;;3.47;1.88;;;22.40;99.90;;;;;;6159066;28;20062;-71
2022/06/08 12:56:30;;;;;;;2.17;1.60;;;22.40;99.90;;;;;;6171665;28;20166;-71
2022/06/08 12:59:36;;;;;;;3.03;1.60;;;22.30;99.90;;;;;;6198669;28;20101;-70
2022/06/08 13:02:41;;;;;;;2.63;1.70;;;22.20;99.90;;;;;;6215472;28;20517;-72
2022/06/08 13:05:44;;;;;;;3.95;2.15;;;22.10;99.90;;;;;;6193976;28;20660;-70
2022/06/08 13:08:48;;;;;;;4.25;1.35;;;22.00;99.90;;;;;;6178613;28;20058;-70
2022/06/08 13:11:56;;;;;;;4.63;1.45;;;21.80;99.90;;;;;;6191086;28;20057;-70
2022/06/08 13:14:58;;;;;;;5.45;1.50;;;21.50;99.90;;;;;;6196964;28;20201;-70
2022/06/08 13:18:02;;;;;;;5.18;1.90;;;20.90;99.90;;;;;;6193605;28;20483;-70
2022/06/08 13:21:07;;;;;;;4.50;1.40;;;20.20;99.90;;;;;;6177775;28;20046;-70
2022/06/08 13:24:10;;;;;;;5.28;1.40;;;19.90;99.90;;;;;;6194101;28;20534;-70
2022/06/08 13:27:15;;;;;;;4.03;1.25;;;19.70;99.90;;;;;;6191337;28;20043;-71
2022/06/08 13:30:19;;;;;;;3.30;1.50;;;19.30;99.90;;;;;;6184185;28;20418;-71
2022/06/08 13:36:52;;;;;;;5.75;2.03;;;19.00;99.90;;;;;;6202797;28;20062;-71
2022/06/08 13:39:55;;;;;;;3.00;1.27;;;18.80;99.90;;;;;;6196287;28;20061;-72
2022/06/08 13:42:59;;;;;;;4.30;1.50;;;18.70;99.90;;;;;;6198891;28;20510;-70
2022/06/08 13:46:01;;;;;;;3.40;1.20;;;18.60;99.90;;;;;;6196753;28;20045;-71
2022/06/08 13:49:03;;;;;;;4.80;1.77;;;18.70;99.90;;;;;;6180634;28;20052;-71
2022/06/08 13:52:07;;;;;;;3.45;1.40;;;18.70;99.90;;;;;;6185636;28;20054;-69
2022/06/08 13:55:17;;;;;;;3.13;1.20;;;18.70;99.90;;;;;;6200968;28;20131;-70
2022/06/08 13:58:21;;;;;;;4.18;1.40;;;18.70;99.90;;;;;;6174926;28;20054;-70
2022/06/08 14:01:27;;;;;;;5.63;1.52;;;18.80;99.90;;;;;;6199232;28;20050;-70
2022/06/08 14:04:33;;;;;;;4.10;1.38;;;18.80;99.90;;;;;;6198823;28;20058;-70
2022/06/08 14:14:17;;;;;;;2.15;1.40;;;18.50;99.90;;;;;;6198519;28;20054;-70
2022/06/08 14:17:21;;;;;;;3.45;1.45;;;18.60;99.90;;;;;;6198944;28;20042;-70
2022/06/08 14:20:29;;;;;;;7.75;2.63;;;18.80;99.90;;;;;;6184068;28;20054;-70
2022/06/08 14:23:33;;;;;;;3.40;1.77;;;18.80;99.90;;;;;;6157364;28;20132;-70
2022/06/08 14:26:37;;;;;;;9.63;3.60;;;19.10;99.90;;;;;;6172851;28;20415;-69
2022/06/08 14:29:40;;;;;;;6.13;3.00;;;19.20;99.90;;;;;;6208543;28;20400;-70
2022/06/08 14:32:46;;;;;;;2.17;1.33;;;19.10;99.90;;;;;;6195803;28;20511;-70
2022/06/08 14:35:49;;;;;;;6.15;2.05;;;18.90;99.90;;;;;;6198118;28;20046;-70
2022/06/08 14:38:53;;;;;;;;;;;18.90;99.90;;;;;;6179875;28;20419;-70
2022/06/08 14:41:55;;;;;;;5.50;3.25;;;18.90;99.90;;;;;;6193626;28;20012;-70
2022/06/08 14:44:59;;;;;;;4.93;2.22;;;18.80;99.90;;;;;;6198329;28;20050;-70
2022/06/08 14:48:01;;;;;;;8.82;3.63;;;18.80;99.90;;;;;;6179054;28;20125;-70
2022/06/08 14:51:04;;;;;;;5.93;3.08;;;18.90;99.90;;;;;;6173929;28;20053;-70
2022/06/08 14:54:11;;;;;;;3.08;1.50;;;18.80;99.90;;;;;;6195075;28;20064;-71
2022/06/08 14:57:23;;;;;;;5.35;2.20;;;18.70;99.90;;;;;;6171485;28;20051;-72
2022/06/08 15:00:26;;;;;;;3.80;1.20;;;18.60;99.90;;;;;;6177188;28;20050;-72
2022/06/08 15:03:30;;;;;;;9.05;3.92;;;18.50;99.90;;;;;;6195812;28;20170;-71
2022/06/08 15:06:32;;;;;;;10.70;6.55;;;18.60;99.90;;;;;;6197213;28;20050;-71
2022/06/08 15:09:35;;;;;;;20.75;16.13;;;18.50;99.90;;;;;;6195813;28;20112;-71
2022/06/08 15:12:40;;;;;;;17.95;13.77;;;18.40;99.90;;;;;;6193157;28;20042;-71
2022/06/08 15:15:42;;;;;;;3.85;2.05;;;18.40;99.90;;;;;;6196584;28;20140;-71
2022/06/08 15:18:44;;;;;;;6.57;5.15;;;18.40;99.90;;;;;;6195653;28;20055;-70
2022/06/08 15:21:46;;;;;;;12.88;9.85;;;18.50;99.90;;;;;;6178680;28;20061;-69
2022/06/08 15:24:50;;;;;;;16.63;9.82;;;18.40;99.90;;;;;;6168379;28;20077;-72
2022/06/08 15:27:57;;;;;;;15.85;8.43;;;18.30;99.90;;;;;;6167200;28;20051;-74
2022/06/08 15:30:59;;;;;;;6.13;4.70;;;18.30;99.90;;;;;;6183753;28;20058;-73
2022/06/08 15:34:01;;;;;;;11.75;6.47;;;18.40;99.90;;;;;;6180250;28;20050;-72
2022/06/08 15:37:04;;;;;;;10.85;7.97;;;18.40;99.90;;;;;;6181810;28;20054;-72
2022/06/08 15:40:12;;;;;;;10.93;6.22;;;18.40;99.90;;;;;;6181164;28;20047;-72
2022/06/08 15:43:14;;;;;;;6.88;4.75;;;18.40;99.90;;;;;;6191906;28;20069;-72
2022/06/08 15:46:18;;;;;;;5.78;2.80;;;18.40;99.90;;;;;;6181688;28;20045;-73
2022/06/08 15:49:24;;;;;;;9.10;3.92;;;18.40;99.90;;;;;;6201305;28;20042;-73
2022/06/08 15:52:29;;;;;;;11.75;6.30;;;18.40;99.90;;;;;;6199448;28;20046;-73
2022/06/08 15:55:35;;;;;;;9.38;5.25;;;18.50;99.90;;;;;;6166259;28;20443;-72
2022/06/08 15:58:39;;;;;;;10.45;5.10;;;18.50;99.90;;;;;;6166798;28;20507;-73
2022/06/08 16:01:42;;;;;;;11.38;4.50;;;18.50;99.90;;;;;;6189325;28;20046;-73
2022/06/08 16:04:44;;;;;;;10.48;6.20;;;18.60;99.90;;;;;;6191133;28;20496;-73
2022/06/08 16:07:46;;;;;;;9.60;5.28;;;18.60;99.90;;;;;;6186563;28;20046;-73
2022/06/08 16:10:49;;;;;;;11.27;5.28;;;18.60;99.90;;;;;;6179344;28;20077;-72
2022/06/08 16:13:52;;;;;;;11.38;5.90;;;18.60;99.90;;;;;;6198273;28;20069;-73
2022/06/08 16:16:56;;;;;;;7.30;3.78;;;18.50;99.90;;;;;;6193041;28;20177;-73
2022/06/08 16:19:58;;;;;;;13.35;6.35;;;18.40;99.90;;;;;;6195451;28;20073;-73
2022/06/08 16:23:01;;;;;;;12.40;6.35;;;18.40;99.90;;;;;;6197275;28;20058;-73
2022/06/08 16:26:04;;;;;;;8.45;4.32;;;18.40;99.90;;;;;;6182038;28;20129;-73
2022/06/08 16:29:06;;;;;;;6.63;3.75;;;18.30;99.90;;;;;;6199830;28;20423;-72
2022/06/08 16:32:09;;;;;;;9.00;4.68;;;18.30;99.90;;;;;;6175041;28;20054;-72